Capac, Michigan
Current Conditions -  °F | °C
As of 4:34 AM on Sunday 23 Nov 2014 (Local Time) from KD95 Reporting Station
Broken Clouds Broken Clouds  
Wind Chill: 43°   Ceiling: 2200
Heat Index: 47°   Visibility: 10mi
Dew Point: 42°   Wind: 7mph
Humidity: 84%   Direction: 210°SSW
Pressure: 29.89"   Gusts: NA
Location:  43.01°N, 82.93°W
Report Text: KD95 230934Z AUTO 21006KT 10SM BKN022 08/06 A2989 RMK AO2 T00810056
Loading
Personal Weather Stations






























Interactive Weather Map New forecast layout! Learn more

10-Day Weather Forecast

Advertisements
Track Severe Weather on mobile